KCIR

Cairo Regional Airport

Cairo, Illinois, USA
METAR KCIR 181555Z AUTO 06006KT 10SM CLR 12/03 A3055 RMK AO2 T01190026
Observed Flight Rules
Oct-18 @ 15:55 UTC (34 minutes ago) Visual Flight Rules
Wind Visibility Clouds
60° at 6 knots 10 miles
  • Clear skies
Temperatures Readings
Current 12°C / 54°F
Dewpoint 3°C / 37°F
Humidity 54%
Altimeter 30.55" Hg
Pressure 1035 hPa
Elevation 98
METAR KCIR 181555Z AUTO 06006KT 10SM CLR 12/03 A3055 RMK AO2 T01190026
Observed Flight Rules
Oct-18 @ 15:55 UTC
(34 minutes ago)
VFR
Wind Visibility
60° at 6 knots 10 miles
Clouds
  • Clear skies
Temperature Dewpoint
12°C / 54°F 3°C / 37°F
Humidity Altimeter Pressure
54% 30.55" Hg 1035 hPa